createdAt,value
2019-05-20T00:00:42.738Z,16.60
2019-05-20T00:03:16.159Z,16.60
2019-05-20T00:05:49.697Z,16.60
2019-05-20T00:08:23.374Z,16.60
2019-05-20T00:10:56.815Z,16.60
2019-05-20T00:13:30.236Z,16.60
2019-05-20T00:16:03.663Z,16.60
2019-05-20T00:18:37.094Z,16.60
2019-05-20T00:21:10.789Z,16.60
2019-05-20T00:23:44.283Z,16.60
2019-05-20T00:26:17.718Z,16.60
2019-05-20T00:28:51.131Z,16.70
2019-05-20T00:31:24.589Z,16.70
2019-05-20T00:33:58.003Z,16.60
2019-05-20T00:36:31.431Z,16.70
2019-05-20T00:39:16.909Z,16.70
2019-05-20T00:41:50.612Z,16.60
2019-05-20T00:44:24.054Z,16.60
2019-05-20T00:46:57.633Z,16.60
2019-05-20T00:49:31.149Z,16.60
2019-05-20T00:52:04.617Z,16.60
2019-05-20T00:54:38.273Z,16.50
2019-05-20T00:57:11.772Z,16.50
2019-05-20T00:59:45.197Z,16.50
2019-05-20T01:02:18.995Z,16.40
2019-05-20T01:04:52.408Z,16.40
2019-05-20T01:07:25.991Z,16.40
2019-05-20T01:09:59.398Z,16.40
2019-05-20T01:12:32.827Z,16.30
2019-05-20T01:15:06.984Z,16.20
2019-05-20T01:17:40.412Z,16.30
2019-05-20T01:20:14.767Z,16.20
2019-05-20T01:22:48.196Z,16.30
2019-05-20T01:25:21.611Z,16.30
2019-05-20T01:27:55.056Z,16.30
2019-05-20T01:30:28.910Z,16.20
2019-05-20T01:33:13.251Z,16.20
2019-05-20T01:35:37.531Z,16.20
2019-05-20T01:38:10.959Z,16.20
2019-05-20T01:40:44.393Z,16.30
2019-05-20T01:43:17.835Z,16.20
2019-05-20T01:45:51.247Z,16.20
2019-05-20T01:48:24.678Z,16.20
2019-05-20T01:50:58.098Z,16.30
2019-05-20T01:53:31.528Z,16.30
2019-05-20T01:56:04.944Z,16.30
2019-05-20T01:58:39.762Z,16.40
2019-05-20T02:01:13.383Z,16.30
2019-05-20T02:03:46.827Z,16.40
2019-05-20T02:06:20.241Z,16.40
2019-05-20T02:08:53.679Z,16.40
2019-05-20T02:11:27.103Z,16.30
2019-05-20T02:14:04.847Z,16.20
2019-05-20T02:16:38.267Z,16.20
2019-05-20T02:19:11.712Z,16.20
2019-05-20T02:21:45.136Z,16.20
2019-05-20T02:24:18.568Z,16.20
2019-05-20T02:26:51.993Z,16.30
2019-05-20T02:29:25.435Z,16.30
2019-05-20T02:31:58.844Z,16.30
2019-05-20T02:34:32.281Z,16.40
2019-05-20T02:37:05.688Z,16.30
2019-05-20T02:39:39.201Z,16.40
2019-05-20T02:42:12.616Z,16.40
2019-05-20T02:44:46.049Z,16.40
2019-05-20T02:47:19.481Z,16.40
2019-05-20T02:49:52.901Z,16.40
2019-05-20T02:52:26.336Z,16.40
2019-05-20T02:54:59.753Z,16.30
2019-05-20T02:57:33.189Z,16.30
2019-05-20T03:00:08.033Z,16.30
2019-05-20T03:02:41.464Z,16.20
2019-05-20T03:05:14.877Z,16.20
2019-05-20T03:07:48.313Z,16.10
2019-05-20T03:10:21.804Z,16.10
2019-05-20T03:12:55.241Z,16.10
2019-05-20T03:15:28.661Z,16.10
2019-05-20T03:18:02.100Z,16.00
2019-05-20T03:20:35.582Z,15.90
2019-05-20T03:23:09.181Z,15.80
2019-05-20T03:25:43.056Z,15.70
2019-05-20T03:28:16.491Z,15.60
2019-05-20T03:30:50.089Z,15.60
2019-05-20T03:33:23.886Z,15.60
2019-05-20T03:35:57.338Z,15.60
2019-05-20T03:38:30.767Z,15.60
2019-05-20T03:41:04.262Z,15.60
2019-05-20T03:43:37.714Z,15.60
2019-05-20T03:46:11.139Z,15.50
2019-05-20T03:48:44.571Z,15.50
2019-05-20T03:51:17.992Z,15.50
2019-05-20T03:53:51.436Z,15.60
2019-05-20T03:56:24.858Z,15.60
2019-05-20T03:58:58.292Z,15.70
2019-05-20T04:01:31.719Z,15.80
2019-05-20T04:04:05.320Z,15.80
2019-05-20T04:06:38.736Z,15.80
2019-05-20T04:09:12.167Z,15.90
2019-05-20T04:11:45.611Z,15.90
2019-05-20T04:14:19.096Z,15.90
2019-05-20T04:16:52.520Z,15.80
2019-05-20T04:19:25.955Z,15.80
2019-05-20T04:21:59.374Z,15.70
2019-05-20T04:24:32.800Z,15.70
2019-05-20T04:27:06.231Z,15.70
2019-05-20T04:29:39.657Z,15.70
2019-05-20T04:32:13.077Z,15.70
2019-05-20T04:34:46.518Z,15.70
2019-05-20T04:37:19.933Z,15.70
2019-05-20T04:39:53.365Z,15.70
2019-05-20T04:42:26.792Z,15.70
2019-05-20T04:45:00.221Z,15.80
2019-05-20T04:47:33.720Z,15.80
2019-05-20T04:50:08.907Z,15.80
2019-05-20T04:52:42.381Z,15.80
2019-05-20T04:55:15.821Z,15.80
2019-05-20T04:57:49.241Z,15.80
2019-05-20T05:00:48.316Z,15.80
2019-05-20T05:03:22.408Z,15.80
2019-05-20T05:05:56.082Z,15.80
2019-05-20T05:08:29.583Z,15.90
2019-05-20T05:11:03.084Z,15.90
2019-05-20T05:13:36.510Z,16.00
2019-05-20T05:16:09.945Z,16.00
2019-05-20T05:18:43.356Z,16.10
2019-05-20T05:21:16.872Z,16.10
2019-05-20T05:23:58.699Z,16.20
2019-05-20T05:26:25.759Z,16.20
2019-05-20T05:28:59.167Z,16.20
2019-05-20T05:31:32.605Z,16.30
2019-05-20T05:34:06.036Z,16.30
2019-05-20T05:36:39.455Z,16.30
2019-05-20T05:39:12.955Z,16.30
2019-05-20T05:41:46.411Z,16.20
2019-05-20T05:44:20.026Z,16.20
2019-05-20T05:46:53.437Z,16.20
2019-05-20T05:49:26.871Z,16.20
2019-05-20T05:52:00.283Z,16.10
2019-05-20T05:54:33.724Z,16.20
2019-05-20T05:57:07.369Z,16.20
2019-05-20T05:59:40.800Z,16.20
2019-05-20T06:02:14.245Z,16.30
2019-05-20T06:04:47.675Z,16.40
2019-05-20T06:07:21.095Z,16.40
2019-05-20T06:09:54.536Z,16.50
2019-05-20T06:12:28.124Z,16.60
2019-05-20T06:15:01.552Z,16.70
2019-05-20T06:17:34.975Z,16.70
2019-05-20T06:20:09.744Z,16.70
2019-05-20T06:22:43.340Z,16.80
2019-05-20T06:25:17.312Z,16.80
2019-05-20T06:27:50.756Z,16.80
2019-05-20T06:30:36.209Z,16.90
2019-05-20T06:33:10.100Z,17.00
2019-05-20T06:35:43.763Z,17.10
2019-05-20T06:38:34.729Z,17.20
2019-05-20T06:41:08.680Z,17.20
2019-05-20T06:43:42.108Z,17.20
2019-05-20T06:46:15.547Z,17.30
2019-05-20T06:48:48.968Z,17.20
2019-05-20T06:51:22.408Z,17.20
2019-05-20T06:53:56.112Z,17.20
2019-05-20T06:56:29.570Z,17.30
2019-05-20T06:59:03.125Z,17.30
2019-05-20T07:01:36.665Z,17.30
2019-05-20T07:04:10.085Z,17.30
2019-05-20T07:06:47.214Z,17.40
2019-05-20T07:09:18.667Z,17.50
2019-05-20T07:11:53.282Z,17.60
2019-05-20T07:14:27.096Z,17.70
2019-05-20T07:17:00.532Z,17.70
2019-05-20T07:19:33.944Z,17.80
2019-05-20T07:22:07.386Z,17.80
2019-05-20T07:24:40.961Z,17.90
2019-05-20T07:27:14.392Z,17.90
2019-05-20T07:29:47.805Z,17.90
2019-05-20T07:32:21.264Z,17.90
2019-05-20T07:34:54.677Z,17.90
2019-05-20T07:37:28.200Z,17.90
2019-05-20T07:40:01.909Z,17.90
2019-05-20T07:42:35.527Z,17.90
2019-05-20T07:45:09.752Z,17.80
2019-05-20T07:47:43.526Z,17.90
2019-05-20T07:50:18.084Z,17.90
2019-05-20T07:52:51.520Z,17.90
2019-05-20T07:55:27.760Z,18.00
2019-05-20T07:58:04.431Z,18.00
2019-05-20T08:00:38.264Z,18.10
2019-05-20T08:03:11.901Z,18.10
2019-05-20T08:05:45.339Z,18.00
2019-05-20T08:08:18.843Z,18.00
2019-05-20T08:10:52.278Z,18.10
2019-05-20T08:13:25.798Z,18.10
2019-05-20T08:15:59.212Z,18.10
2019-05-20T08:18:32.757Z,18.10
2019-05-20T08:21:06.180Z,18.10
2019-05-20T08:23:39.606Z,18.20
2019-05-20T08:26:13.064Z,18.10
2019-05-20T08:28:46.550Z,18.10
2019-05-20T08:31:19.960Z,18.10
2019-05-20T08:33:53.410Z,18.10
2019-05-20T08:36:26.970Z,18.00
2019-05-20T08:39:00.460Z,17.90
2019-05-20T08:41:33.922Z,17.90
2019-05-20T08:44:07.393Z,17.90
2019-05-20T08:46:40.991Z,17.80
2019-05-20T08:49:14.479Z,17.80
2019-05-20T08:51:47.914Z,17.80
2019-05-20T08:54:21.349Z,17.80
2019-05-20T08:56:54.768Z,17.80
2019-05-20T08:59:28.240Z,17.80
2019-05-20T09:02:01.664Z,17.70
2019-05-20T09:04:35.088Z,17.70
2019-05-20T09:07:08.546Z,17.70
2019-05-20T09:09:41.980Z,17.70
2019-05-20T09:12:15.436Z,17.70
2019-05-20T09:14:48.861Z,17.70
2019-05-20T09:17:22.489Z,17.70
2019-05-20T09:19:55.912Z,17.70
2019-05-20T09:22:29.348Z,17.70
2019-05-20T09:25:03.244Z,17.70
2019-05-20T09:27:37.150Z,17.70
2019-05-20T09:30:12.813Z,17.70
2019-05-20T09:32:46.816Z,17.80
2019-05-20T09:35:20.619Z,17.80
2019-05-20T09:37:54.059Z,17.80
2019-05-20T09:40:58.092Z,17.80
2019-05-20T09:43:31.615Z,17.80
2019-05-20T09:46:07.947Z,17.80
2019-05-20T09:48:40.192Z,17.90
2019-05-20T09:51:13.692Z,17.90
2019-05-20T09:53:47.129Z,17.90
2019-05-20T09:56:20.557Z,17.90
2019-05-20T09:58:53.992Z,17.90
2019-05-20T10:01:27.417Z,17.90
2019-05-20T10:04:00.847Z,17.80
2019-05-20T10:06:34.347Z,17.80
2019-05-20T10:09:07.876Z,17.80
2019-05-20T10:11:41.372Z,17.70
2019-05-20T10:14:14.819Z,17.80
2019-05-20T10:16:48.252Z,17.80
2019-05-20T10:19:21.710Z,17.80
2019-05-20T10:21:55.119Z,17.80
2019-05-20T10:24:28.563Z,17.80
2019-05-20T10:27:01.987Z,17.80
2019-05-20T10:29:35.424Z,17.90
2019-05-20T10:32:08.845Z,17.90
2019-05-20T10:34:42.276Z,17.80
2019-05-20T10:37:15.703Z,17.80
2019-05-20T10:39:49.175Z,17.80
2019-05-20T10:42:22.607Z,17.80
2019-05-20T10:44:56.115Z,17.90
2019-05-20T10:47:29.548Z,18.00
2019-05-20T10:50:03.625Z,18.10
2019-05-20T10:52:37.048Z,18.30
2019-05-20T10:55:11.700Z,18.40
2019-05-20T10:57:45.122Z,18.50
2019-05-20T11:00:19.293Z,18.60
2019-05-20T11:02:52.791Z,18.60
2019-05-20T11:05:26.236Z,18.70
2019-05-20T11:07:59.659Z,18.80
2019-05-20T11:10:33.168Z,18.80
2019-05-20T11:13:06.601Z,18.80
2019-05-20T11:15:40.251Z,18.80
2019-05-20T11:18:13.682Z,18.90
2019-05-20T11:20:47.108Z,18.90
2019-05-20T11:23:20.536Z,18.90
2019-05-20T11:25:53.971Z,18.90
2019-05-20T11:28:27.411Z,18.80
2019-05-20T11:31:00.840Z,18.70
2019-05-20T11:33:34.278Z,18.70
2019-05-20T11:36:07.699Z,18.60
2019-05-20T11:38:41.120Z,18.60
2019-05-20T11:41:14.552Z,18.70
2019-05-20T11:43:47.994Z,18.60
2019-05-20T11:46:21.498Z,18.70
2019-05-20T11:48:55.012Z,18.70
2019-05-20T11:51:28.494Z,18.70
2019-05-20T11:54:02.032Z,18.80
2019-05-20T11:56:35.468Z,18.90
2019-05-20T11:59:09.247Z,18.90
2019-05-20T12:01:42.728Z,19.00
2019-05-20T12:04:16.200Z,19.10
2019-05-20T12:06:49.622Z,19.20
2019-05-20T12:09:23.076Z,19.40
2019-05-20T12:11:56.631Z,19.40
2019-05-20T12:14:30.140Z,19.60
2019-05-20T12:17:03.626Z,19.60
2019-05-20T12:19:37.056Z,19.70
2019-05-20T12:22:10.498Z,19.70
2019-05-20T12:24:44.003Z,19.80
2019-05-20T12:27:17.425Z,19.90
2019-05-20T12:29:50.875Z,19.90
2019-05-20T12:32:24.303Z,19.90
2019-05-20T12:34:57.735Z,19.80
2019-05-20T12:37:31.230Z,19.80
2019-05-20T12:40:08.085Z,19.90
2019-05-20T12:42:41.717Z,19.90
2019-05-20T12:45:15.495Z,19.90
2019-05-20T12:47:48.916Z,19.90
2019-05-20T12:50:23.512Z,19.90
2019-05-20T12:52:56.943Z,19.90
2019-05-20T12:55:30.391Z,19.90
2019-05-20T12:58:03.874Z,19.90
2019-05-20T13:00:37.574Z,19.90
2019-05-20T13:03:11.015Z,19.80
2019-05-20T13:05:44.518Z,19.80
2019-05-20T13:08:18.045Z,19.80
2019-05-20T13:10:51.491Z,19.80
2019-05-20T13:13:24.993Z,20.00
2019-05-20T13:15:58.441Z,20.10
2019-05-20T13:18:31.859Z,20.10
2019-05-20T13:21:05.363Z,20.10
2019-05-20T13:23:38.828Z,20.10
2019-05-20T13:26:12.260Z,20.20
2019-05-20T13:28:45.686Z,20.20
2019-05-20T13:31:19.129Z,20.10
2019-05-20T13:33:52.549Z,20.10
2019-05-20T13:36:25.980Z,20.10
2019-05-20T13:38:59.409Z,20.10
2019-05-20T13:41:32.844Z,20.00
2019-05-20T13:44:06.276Z,19.90
2019-05-20T13:46:39.708Z,19.80
2019-05-20T13:49:13.136Z,19.80
2019-05-20T13:51:46.571Z,19.70
2019-05-20T13:54:20.015Z,19.70
2019-05-20T13:56:53.469Z,19.60
2019-05-20T13:59:26.876Z,19.50
2019-05-20T14:02:00.332Z,19.30
2019-05-20T14:04:33.744Z,19.30
2019-05-20T14:07:07.277Z,19.30
2019-05-20T14:09:40.731Z,19.30
2019-05-20T14:12:14.239Z,19.20
2019-05-20T14:14:47.673Z,19.10
2019-05-20T14:17:21.144Z,18.90
2019-05-20T14:19:54.576Z,18.80
2019-05-20T14:22:28.077Z,18.70
2019-05-20T14:25:01.512Z,18.60
2019-05-20T14:27:34.947Z,18.60
2019-05-20T14:30:09.919Z,18.50
2019-05-20T14:32:43.333Z,18.40
2019-05-20T14:35:16.766Z,18.30
2019-05-20T14:37:50.193Z,18.30
2019-05-20T14:40:23.800Z,18.20
2019-05-20T14:42:57.220Z,18.10
2019-05-20T14:45:30.696Z,18.00
2019-05-20T14:48:04.241Z,17.90
2019-05-20T14:50:37.712Z,17.80
2019-05-20T14:53:11.136Z,17.80
2019-05-20T14:55:44.577Z,17.70
2019-05-20T14:58:18.004Z,17.60
2019-05-20T15:00:51.447Z,17.50
2019-05-20T15:03:25.827Z,17.50
2019-05-20T15:05:59.329Z,17.40
2019-05-20T15:08:34.472Z,17.50
2019-05-20T15:11:07.972Z,17.50
2019-05-20T15:13:41.412Z,17.60
2019-05-20T15:16:14.851Z,17.60
2019-05-20T15:18:48.286Z,17.60
2019-05-20T15:21:21.747Z,17.60
2019-05-20T15:23:55.262Z,17.60
2019-05-20T15:26:28.750Z,17.50
2019-05-20T15:29:03.290Z,17.50
2019-05-20T15:31:37.396Z,17.50
2019-05-20T15:34:10.815Z,17.50
2019-05-20T15:36:44.353Z,17.40
2019-05-20T15:39:18.160Z,17.40
2019-05-20T15:41:51.588Z,17.40
2019-05-20T15:44:25.019Z,17.20
2019-05-20T15:46:58.449Z,17.10
2019-05-20T15:49:31.868Z,17.00
2019-05-20T15:52:05.307Z,16.90
2019-05-20T15:54:38.781Z,16.90
2019-05-20T15:57:12.212Z,16.80
2019-05-20T15:59:46.755Z,16.80
2019-05-20T16:02:20.535Z,16.80
2019-05-20T16:04:53.952Z,16.80
2019-05-20T16:07:27.381Z,16.70
2019-05-20T16:10:00.802Z,16.60
2019-05-20T16:12:34.519Z,16.50
2019-05-20T16:15:08.759Z,16.40
2019-05-20T16:17:42.192Z,16.40
2019-05-20T16:20:16.213Z,16.30
2019-05-20T16:22:49.650Z,16.40
2019-05-20T16:25:23.150Z,16.30
2019-05-20T16:27:56.580Z,16.30
2019-05-20T16:30:30.023Z,16.30
2019-05-20T16:33:03.458Z,16.20
2019-05-20T16:35:36.881Z,16.20
2019-05-20T16:38:10.316Z,16.20
2019-05-20T16:40:43.908Z,16.20
2019-05-20T16:43:17.368Z,16.20
2019-05-20T16:45:50.860Z,16.20
2019-05-20T16:48:24.452Z,16.30
2019-05-20T16:50:57.874Z,16.30
2019-05-20T16:53:31.304Z,16.30
2019-05-20T16:56:04.728Z,16.40
2019-05-20T16:58:38.151Z,16.40
2019-05-20T17:01:11.576Z,16.50
2019-05-20T17:03:45.026Z,16.50
2019-05-20T17:06:18.439Z,16.50
2019-05-20T17:08:51.867Z,16.50
2019-05-20T17:11:25.341Z,16.50
2019-05-20T17:13:58.818Z,16.50
2019-05-20T17:16:32.231Z,16.50
2019-05-20T17:19:05.675Z,16.40
2019-05-20T17:21:39.095Z,16.50
2019-05-20T17:24:12.547Z,16.50
2019-05-20T17:26:45.973Z,16.50
2019-05-20T17:29:19.404Z,16.50
2019-05-20T17:31:52.827Z,16.60
2019-05-20T17:34:26.265Z,16.60
2019-05-20T17:36:59.700Z,16.60
2019-05-20T17:39:33.147Z,16.50
2019-05-20T17:42:06.964Z,16.50
2019-05-20T17:44:40.572Z,16.50
2019-05-20T17:47:13.990Z,16.50
2019-05-20T17:49:47.495Z,16.50
2019-05-20T17:52:20.920Z,16.50
2019-05-20T17:54:54.356Z,16.40
2019-05-20T17:57:27.869Z,16.40
2019-05-20T18:00:01.531Z,16.30
2019-05-20T18:02:35.032Z,16.30
2019-05-20T18:05:09.607Z,16.30
2019-05-20T18:07:43.199Z,16.30
2019-05-20T18:10:18.926Z,16.30
2019-05-20T18:12:52.357Z,16.30
2019-05-20T18:15:25.780Z,16.20
2019-05-20T18:17:59.244Z,16.20
2019-05-20T18:20:32.671Z,16.20
2019-05-20T18:23:06.095Z,16.10
2019-05-20T18:25:39.533Z,16.10
2019-05-20T18:28:13.015Z,16.20
2019-05-20T18:30:46.555Z,16.20
2019-05-20T18:33:19.997Z,16.20
2019-05-20T18:35:53.484Z,16.20
2019-05-20T18:38:26.917Z,16.20
2019-05-20T18:41:00.343Z,16.10
2019-05-20T18:43:33.789Z,16.10
2019-05-20T18:46:07.209Z,16.10
2019-05-20T18:48:40.645Z,16.10
2019-05-20T18:51:14.076Z,16.10
2019-05-20T18:53:47.778Z,16.00
2019-05-20T18:56:21.204Z,16.00
2019-05-20T18:58:54.649Z,16.00
2019-05-20T19:01:28.348Z,16.00
2019-05-20T19:04:01.804Z,16.00
2019-05-20T19:06:35.300Z,16.00
2019-05-20T19:09:09.312Z,16.00
2019-05-20T19:11:42.735Z,16.00
2019-05-20T19:14:16.203Z,15.90
2019-05-20T19:16:49.620Z,15.90
2019-05-20T19:19:23.503Z,15.90
2019-05-20T19:21:57.377Z,15.90
2019-05-20T19:24:30.827Z,15.80
2019-05-20T19:27:05.434Z,15.90
2019-05-20T19:29:38.935Z,15.90
2019-05-20T19:32:14.213Z,15.90
2019-05-20T19:34:47.666Z,16.00
2019-05-20T19:37:21.160Z,15.90
2019-05-20T19:39:54.595Z,15.90
2019-05-20T19:42:28.016Z,15.90
2019-05-20T19:45:01.458Z,15.90
2019-05-20T19:47:34.876Z,16.00
2019-05-20T19:50:09.125Z,16.00
2019-05-20T19:52:42.769Z,16.00
2019-05-20T19:55:18.779Z,16.00
2019-05-20T19:57:51.508Z,16.00
2019-05-20T20:00:24.949Z,15.90
2019-05-20T20:02:58.375Z,15.80
2019-05-20T20:05:31.803Z,15.80
2019-05-20T20:08:05.595Z,15.80
2019-05-20T20:10:39.031Z,15.90
2019-05-20T20:13:12.460Z,15.90
2019-05-20T20:15:45.910Z,15.90
2019-05-20T20:18:19.392Z,15.90
2019-05-20T20:20:52.840Z,15.90
2019-05-20T20:23:26.262Z,15.80
2019-05-20T20:25:59.697Z,15.80
2019-05-20T20:28:33.124Z,15.80
2019-05-20T20:31:06.552Z,15.80
2019-05-20T20:33:40.648Z,15.80
2019-05-20T20:36:14.087Z,15.80
2019-05-20T20:38:47.511Z,15.90
2019-05-20T20:41:20.944Z,15.90
2019-05-20T20:43:54.384Z,15.90
2019-05-20T20:46:27.821Z,15.90
2019-05-20T20:49:01.253Z,15.80
2019-05-20T20:51:34.718Z,15.80
2019-05-20T20:54:08.194Z,15.80
2019-05-20T20:56:41.624Z,15.90
2019-05-20T20:59:15.045Z,15.90
2019-05-20T21:01:48.475Z,15.90
2019-05-20T21:04:21.900Z,15.90
2019-05-20T21:06:55.348Z,15.90
2019-05-20T21:09:28.792Z,15.90
2019-05-20T21:12:02.500Z,15.90
2019-05-20T21:14:36.198Z,15.80
2019-05-20T21:17:09.620Z,15.90
2019-05-20T21:19:43.063Z,15.90
2019-05-20T21:22:16.482Z,15.90
2019-05-20T21:24:49.920Z,15.90
2019-05-20T21:27:23.343Z,15.90
2019-05-20T21:29:56.775Z,15.90
2019-05-20T21:32:30.214Z,15.90
2019-05-20T21:35:03.728Z,15.80
2019-05-20T21:37:37.148Z,15.80
2019-05-20T21:40:10.944Z,15.80
2019-05-20T21:42:44.373Z,15.90
2019-05-20T21:45:17.802Z,15.90
2019-05-20T21:47:51.220Z,15.90
2019-05-20T21:50:24.664Z,15.90
2019-05-20T21:52:58.089Z,15.90
2019-05-20T21:55:31.884Z,15.90
2019-05-20T21:58:05.383Z,15.90
2019-05-20T22:00:41.022Z,15.90
2019-05-20T22:03:23.944Z,15.80
2019-05-20T22:05:49.736Z,15.80
2019-05-20T22:08:23.156Z,15.80
2019-05-20T22:10:56.643Z,15.70
2019-05-20T22:13:30.108Z,15.80
2019-05-20T22:16:05.225Z,15.80
2019-05-20T22:18:38.647Z,15.80
2019-05-20T22:21:13.715Z,15.70
2019-05-20T22:23:51.729Z,15.80
2019-05-20T22:26:25.156Z,15.80
2019-05-20T22:28:58.788Z,15.70
2019-05-20T22:31:32.224Z,15.80
2019-05-20T22:34:05.655Z,15.80
2019-05-20T22:36:39.082Z,15.80
2019-05-20T22:39:12.604Z,15.80
2019-05-20T22:41:46.324Z,15.80
2019-05-20T22:44:19.956Z,15.80
2019-05-20T22:46:53.552Z,15.80
2019-05-20T22:49:26.980Z,15.90
2019-05-20T22:52:00.432Z,15.80
2019-05-20T22:54:33.836Z,15.80
2019-05-20T22:57:07.301Z,15.70
2019-05-20T22:59:40.788Z,15.70
2019-05-20T23:02:14.291Z,15.80
2019-05-20T23:04:47.732Z,15.80
2019-05-20T23:07:21.175Z,15.80
2019-05-20T23:09:54.595Z,15.70
2019-05-20T23:12:28.039Z,15.70
2019-05-20T23:15:01.722Z,15.70
2019-05-20T23:17:35.455Z,15.70
2019-05-20T23:20:09.579Z,15.70
2019-05-20T23:22:43.016Z,15.60
2019-05-20T23:25:16.440Z,15.60
2019-05-20T23:27:49.873Z,15.60
2019-05-20T23:30:23.466Z,15.60
2019-05-20T23:32:56.928Z,15.50
2019-05-20T23:35:30.424Z,15.60
2019-05-20T23:38:03.860Z,15.60
2019-05-20T23:40:37.855Z,15.60
2019-05-20T23:43:11.292Z,15.60
2019-05-20T23:45:44.717Z,15.60
2019-05-20T23:48:18.155Z,15.60
2019-05-20T23:50:51.576Z,15.50
2019-05-20T23:53:25.007Z,15.60
2019-05-20T23:55:58.521Z,15.60
2019-05-20T23:58:31.940Z,15.70
